Mission Field
KLVM : rendu visible

Aérodrome :











RETROUVEZ-NOUS SUR...

 
LOGIN :

S'inscrire | Disclaimer

   EN    FR    IT 

 









Légende :    VFR   VFR Marginal   IFR   IFR Intensif   IFR Très Intensif
Visi : 
Plafond : 
>= 8 km
>= 3000ft
5 à 8 km
1000 à 3000 ft
1500m à 5 km
500 à 1000 ft
800 à 1500m
200 à 500 ft
< 800m
< 200 ft
Symboles :   Orages  Brouillard  Fortes neiges  Fortes précipitations  Vent > 20 kt






- Altitude de l'aérodrome : 4660 ft


KLVM - Mission Field

DERNIER METAR :
  • 100653Z AUTO 27012KT 10SM SCT060 OVC090 M01/M09 A3007 RMK AO2 SLP212 T10111089 400221089

METARs EXPIRÉS :
  • 100553Z AUTO 25013KT 10SM BKN055 OVC085 M01/M09 A3008 RMK AO2 SLP217 T10111089 11011 21033 50004
  • 100453Z AUTO 26013KT 10SM OVC055 M01/M09 A3008 RMK AO2 SLP221 T10111094

TAF KLVM
Valide du 10 à 06h jusqu'au 11 à 06h UTC


100530Z 1006/1106 27013KT P6SM BKN070
FM101600 24025G35KT P6SM BKN060
FM102300 24032G40KT P6SM BKN070



MET'MAP, la Météo Aéronautique d'un coup d'oeil ! - Copyright ORBIFLY Décembre 2007 - Disclaimer

ORBIFLY MET'MAP TEAM :

Programmation & Développement : Alexandra Zaïnal
Sur une idée originale de : Baudouin d'Aumeries
Assistance à la programmation : Marc-Olivier Méhu
Soutien technique & logistique : Manuel Goepfert

Contact : metmap@orbifly.com




SOURCES & CREDITS :

   NOAA       Earth
Advisory